createdAt,value
2023-01-25T00:01:10.663Z,6.47
2023-01-25T00:03:39.414Z,6.82
2023-01-25T00:06:08.141Z,7.13
2023-01-25T00:08:38.544Z,6.95
2023-01-25T00:11:06.784Z,6.82
2023-01-25T00:13:34.907Z,6.60
2023-01-25T00:16:03.450Z,6.25
2023-01-25T00:18:31.653Z,7.03
2023-01-25T00:21:02.504Z,6.65
2023-01-25T00:23:30.465Z,6.32
2023-01-25T00:26:00.355Z,6.05
2023-01-25T00:28:28.480Z,6.50
2023-01-25T00:31:01.288Z,6.32
2023-01-25T00:33:41.684Z,7.13
2023-01-25T00:36:33.659Z,6.57
2023-01-25T00:39:01.768Z,6.72
2023-01-25T00:41:31.128Z,6.53
2023-01-25T00:43:59.841Z,7.07
2023-01-25T00:46:27.866Z,7.07
2023-01-25T00:48:56.143Z,6.63
2023-01-25T00:51:26.493Z,6.90
2023-01-25T00:53:54.698Z,5.90
2023-01-25T00:56:22.809Z,6.40
2023-01-25T00:58:52.178Z,7.18
2023-01-25T01:01:20.542Z,6.80
2023-01-25T01:03:48.645Z,6.65
2023-01-25T01:06:16.617Z,7.45
2023-01-25T01:08:44.506Z,7.05
2023-01-25T01:11:14.056Z,7.50
2023-01-25T01:13:42.301Z,6.95
2023-01-25T01:16:13.901Z,6.82
2023-01-25T01:18:44.208Z,6.60
2023-01-25T01:21:13.743Z,6.20
2023-01-25T01:23:42.159Z,6.05
2023-01-25T01:26:13.634Z,6.07
2023-01-25T01:28:43.211Z,6.68
2023-01-25T01:31:17.493Z,5.90
2023-01-25T01:33:45.570Z,6.22
2023-01-25T01:36:16.559Z,6.40
2023-01-25T01:38:44.988Z,5.78
2023-01-25T01:41:15.866Z,5.90
2023-01-25T01:43:45.606Z,6.13
2023-01-25T01:46:18.761Z,6.03
2023-01-25T01:48:53.787Z,5.50
2023-01-25T01:51:25.749Z,5.50
2023-01-25T01:53:59.014Z,5.32
2023-01-25T01:56:32.636Z,5.07
2023-01-25T01:59:01.916Z,5.38
2023-01-25T02:01:31.364Z,5.28
2023-01-25T02:04:03.276Z,5.88
2023-01-25T02:06:36.115Z,5.13
2023-01-25T02:09:04.295Z,5.13
2023-01-25T02:11:33.948Z,5.03
2023-01-25T02:14:03.890Z,4.90
2023-01-25T02:16:33.584Z,4.80
2023-01-25T02:19:03.734Z,4.97
2023-01-25T02:21:40.358Z,4.68
2023-01-25T02:24:13.640Z,4.35
2023-01-25T02:26:43.285Z,4.40
2023-01-25T02:29:12.121Z,4.57
2023-01-25T02:31:40.381Z,4.13
2023-01-25T02:34:08.313Z,4.47
2023-01-25T02:36:37.061Z,4.57
2023-01-25T02:39:08.507Z,4.32
2023-01-25T02:41:37.798Z,3.88
2023-01-25T02:44:11.129Z,4.30
2023-01-25T02:46:40.547Z,4.35
2023-01-25T02:49:11.281Z,4.10
2023-01-25T02:51:40.874Z,3.75
2023-01-25T02:54:11.009Z,4.18
2023-01-25T02:56:40.760Z,4.07
2023-01-25T02:59:13.312Z,3.53
2023-01-25T03:01:42.797Z,3.15
2023-01-25T03:04:10.843Z,4.07
2023-01-25T03:06:39.825Z,3.85
2023-01-25T03:09:09.967Z,3.50
2023-01-25T03:11:38.356Z,3.15
2023-01-25T03:14:06.379Z,3.30
2023-01-25T03:16:35.766Z,3.08
2023-01-25T03:19:03.796Z,3.45
2023-01-25T03:21:31.862Z,3.40
2023-01-25T03:24:01.948Z,3.50
2023-01-25T03:26:30.775Z,3.10
2023-01-25T03:28:58.790Z,3.03
2023-01-25T03:31:26.873Z,3.10
2023-01-25T03:33:56.153Z,3.65
2023-01-25T03:36:24.379Z,3.25
2023-01-25T03:38:52.405Z,2.88
2023-01-25T03:41:20.230Z,3.03
2023-01-25T03:43:48.049Z,2.85
2023-01-25T03:46:15.994Z,2.80
2023-01-25T03:48:43.875Z,3.13
2023-01-25T03:51:14.752Z,2.95
2023-01-25T03:53:42.669Z,3.20
2023-01-25T03:56:17.578Z,2.92
2023-01-25T03:58:45.756Z,3.20
2023-01-25T04:01:14.257Z,3.13
2023-01-25T04:03:42.326Z,3.05
2023-01-25T04:06:10.314Z,2.97
2023-01-25T04:08:39.800Z,2.92
2023-01-25T04:11:09.499Z,3.03
2023-01-25T04:13:38.478Z,2.85
2023-01-25T04:16:07.731Z,2.80
2023-01-25T04:18:35.660Z,3.22
2023-01-25T04:21:03.571Z,3.08
2023-01-25T04:23:31.699Z,3.33
2023-01-25T04:26:03.252Z,3.67
2023-01-25T04:28:31.267Z,2.90
2023-01-25T04:30:59.545Z,3.00
2023-01-25T04:33:28.245Z,3.35
2023-01-25T04:35:56.181Z,2.90
2023-01-25T04:38:24.033Z,3.17
2023-01-25T04:40:52.002Z,3.40
2023-01-25T04:43:21.946Z,3.17
2023-01-25T04:45:50.040Z,3.30
2023-01-25T04:48:18.139Z,3.20
2023-01-25T04:50:46.670Z,3.22
2023-01-25T04:53:14.947Z,3.20
2023-01-25T04:55:46.463Z,3.05
2023-01-25T04:58:14.872Z,3.20
2023-01-25T05:00:44.114Z,3.10
2023-01-25T05:03:11.972Z,3.50
2023-01-25T05:05:39.821Z,3.00
2023-01-25T05:08:07.700Z,3.45
2023-01-25T05:10:35.539Z,3.42
2023-01-25T05:13:03.606Z,3.40
2023-01-25T05:15:31.525Z,3.40
2023-01-25T05:18:00.803Z,3.40
2023-01-25T05:20:29.549Z,3.55
2023-01-25T05:22:57.380Z,3.72
2023-01-25T05:25:42.965Z,3.85
2023-01-25T05:28:10.947Z,3.58
2023-01-25T05:30:38.989Z,4.00
2023-01-25T05:33:08.448Z,3.78
2023-01-25T05:35:36.372Z,4.75
2023-01-25T05:38:04.276Z,3.65
2023-01-25T05:40:32.252Z,4.03
2023-01-25T05:43:00.830Z,3.80
2023-01-25T05:45:30.086Z,3.88
2023-01-25T05:47:59.998Z,4.60
2023-01-25T05:50:29.598Z,4.03
2023-01-25T05:52:57.464Z,4.20
2023-01-25T05:55:27.816Z,4.00
2023-01-25T05:57:57.042Z,3.85
2023-01-25T06:00:25.064Z,4.40
2023-01-25T06:02:53.016Z,4.07
2023-01-25T06:05:20.970Z,4.13
2023-01-25T06:07:50.351Z,4.10
2023-01-25T06:10:18.202Z,4.20
2023-01-25T06:12:46.144Z,4.38
2023-01-25T06:15:13.974Z,4.50
2023-01-25T06:17:41.917Z,4.07
2023-01-25T06:20:11.095Z,3.80
2023-01-25T06:22:39.050Z,4.00
2023-01-25T06:25:09.987Z,4.18
2023-01-25T06:27:37.932Z,4.07
2023-01-25T06:30:07.787Z,3.60
2023-01-25T06:32:35.731Z,3.70
2023-01-25T06:35:03.624Z,3.70
2023-01-25T06:37:31.523Z,3.50
2023-01-25T06:39:59.383Z,3.90
2023-01-25T06:42:28.752Z,3.88
2023-01-25T06:44:56.669Z,3.63
2023-01-25T06:47:24.694Z,3.85
2023-01-25T06:49:52.562Z,3.38
2023-01-25T06:52:20.421Z,3.70
2023-01-25T06:54:48.323Z,3.70
2023-01-25T06:57:16.313Z,3.15
2023-01-25T06:59:45.713Z,3.25
2023-01-25T07:02:16.223Z,3.47
2023-01-25T07:04:44.050Z,3.10
2023-01-25T07:07:11.878Z,3.42
2023-01-25T07:09:39.788Z,3.42
2023-01-25T07:12:08.317Z,3.38
2023-01-25T07:14:36.336Z,3.42
2023-01-25T07:17:05.707Z,3.20
2023-01-25T07:19:33.533Z,3.40
2023-01-25T07:22:01.365Z,3.00
2023-01-25T07:24:29.903Z,2.63
2023-01-25T07:26:58.027Z,2.72
2023-01-25T07:29:25.880Z,2.92
2023-01-25T07:31:53.872Z,2.78
2023-01-25T07:34:23.395Z,2.97
2023-01-25T07:36:51.336Z,2.90
2023-01-25T07:39:19.348Z,3.38
2023-01-25T07:41:47.256Z,2.95
2023-01-25T07:44:15.307Z,2.65
2023-01-25T07:46:43.484Z,2.72
2023-01-25T07:49:11.253Z,3.10
2023-01-25T07:51:40.549Z,2.97
2023-01-25T07:54:10.994Z,2.60
2023-01-25T07:56:40.624Z,2.95
2023-01-25T07:59:09.302Z,2.75
2023-01-25T08:01:37.640Z,2.80
2023-01-25T08:04:06.300Z,3.10
2023-01-25T08:06:39.256Z,2.47
2023-01-25T08:09:12.121Z,2.75
2023-01-25T08:11:40.295Z,2.47
2023-01-25T08:14:09.206Z,3.10
2023-01-25T08:16:37.144Z,2.75
2023-01-25T08:19:05.737Z,2.75
2023-01-25T08:21:35.295Z,2.80
2023-01-25T08:24:05.020Z,2.50
2023-01-25T08:26:35.671Z,2.70
2023-01-25T08:29:03.851Z,2.30
2023-01-25T08:31:33.841Z,2.47
2023-01-25T08:34:02.579Z,2.42
2023-01-25T08:36:30.799Z,2.00
2023-01-25T08:39:00.969Z,2.40
2023-01-25T08:41:30.709Z,1.70
2023-01-25T08:44:00.336Z,2.22
2023-01-25T08:46:31.587Z,2.25
2023-01-25T08:49:01.541Z,2.17
2023-01-25T08:51:31.316Z,1.90
2023-01-25T08:54:02.634Z,1.73
2023-01-25T08:56:30.329Z,2.10
2023-01-25T08:58:58.073Z,1.70
2023-01-25T09:01:27.193Z,1.83
2023-01-25T09:03:56.061Z,2.15
2023-01-25T09:06:23.886Z,1.88
2023-01-25T09:08:51.744Z,1.90
2023-01-25T09:11:21.180Z,2.00
2023-01-25T09:13:49.518Z,2.00
2023-01-25T09:16:22.741Z,1.92
2023-01-25T09:18:51.867Z,1.73
2023-01-25T09:21:20.464Z,1.83
2023-01-25T09:23:51.379Z,1.75
2023-01-25T09:26:32.528Z,1.83
2023-01-25T09:29:00.675Z,1.75
2023-01-25T09:31:29.551Z,1.83
2023-01-25T09:33:59.062Z,1.90
2023-01-25T09:36:27.168Z,1.58
2023-01-25T09:38:57.533Z,1.85
2023-01-25T09:41:43.037Z,1.70
2023-01-25T09:44:28.297Z,1.50
2023-01-25T09:46:59.688Z,1.65
2023-01-25T09:49:52.343Z,1.50
2023-01-25T09:52:40.283Z,1.33
2023-01-25T09:55:14.956Z,1.63
2023-01-25T09:57:48.161Z,1.50
2023-01-25T10:00:20.790Z,2.00
2023-01-25T10:02:54.138Z,1.40
2023-01-25T10:05:28.232Z,1.40
2023-01-25T10:07:59.356Z,1.60
2023-01-25T10:10:34.766Z,1.50
2023-01-25T10:13:04.119Z,1.33
2023-01-25T10:15:37.140Z,1.70
2023-01-25T10:18:18.184Z,1.38
2023-01-25T10:20:53.217Z,1.45
2023-01-25T10:23:53.910Z,1.40
2023-01-25T10:26:26.601Z,1.40
2023-01-25T10:29:03.611Z,1.52
2023-01-25T10:31:40.780Z,1.85
2023-01-25T10:34:19.443Z,1.50
2023-01-25T10:36:52.408Z,1.40
2023-01-25T10:39:21.191Z,1.40
2023-01-25T10:41:52.372Z,1.50
2023-01-25T10:44:24.490Z,1.50
2023-01-25T10:46:58.477Z,1.38
2023-01-25T10:49:30.564Z,1.67
2023-01-25T10:52:14.249Z,1.50
2023-01-25T10:54:42.224Z,1.58
2023-01-25T10:57:15.639Z,1.67
2023-01-25T10:59:47.006Z,1.50
2023-01-25T11:02:41.088Z,1.80
2023-01-25T11:05:30.108Z,1.30
2023-01-25T11:08:00.885Z,1.45
2023-01-25T11:10:31.740Z,1.70
2023-01-25T11:13:22.792Z,1.80
2023-01-25T11:15:52.930Z,1.70
2023-01-25T11:18:24.143Z,1.33
2023-01-25T11:21:07.030Z,1.60
2023-01-25T11:23:36.294Z,1.70
2023-01-25T11:26:15.964Z,1.40
2023-01-25T11:28:44.596Z,1.60
2023-01-25T11:31:14.788Z,1.40
2023-01-25T11:33:43.286Z,1.40
2023-01-25T11:36:20.983Z,1.50
2023-01-25T11:39:01.076Z,1.60
2023-01-25T11:41:38.235Z,1.40
2023-01-25T11:44:40.808Z,1.63
2023-01-25T11:47:18.851Z,1.50
2023-01-25T11:49:58.606Z,1.80
2023-01-25T11:52:36.290Z,2.00
2023-01-25T11:55:21.896Z,1.88
2023-01-25T11:58:08.058Z,1.90
2023-01-25T12:00:57.642Z,2.10
2023-01-25T12:04:10.964Z,1.65
2023-01-25T12:06:51.116Z,1.92
2023-01-25T12:09:31.699Z,1.98
2023-01-25T12:12:12.137Z,1.98
2023-01-25T12:14:55.693Z,1.83
2023-01-25T12:17:32.833Z,1.73
2023-01-25T12:20:23.874Z,2.10
2023-01-25T12:23:06.775Z,1.70
2023-01-25T12:25:44.394Z,1.90
2023-01-25T12:28:20.800Z,1.60
2023-01-25T12:30:54.874Z,1.83
2023-01-25T12:33:28.847Z,1.70
2023-01-25T12:36:02.928Z,1.77
2023-01-25T12:38:38.057Z,1.98
2023-01-25T12:41:15.461Z,1.95
2023-01-25T12:43:51.573Z,1.88
2023-01-25T12:46:27.615Z,1.70
2023-01-25T12:49:00.718Z,1.90
2023-01-25T12:51:35.555Z,1.77
2023-01-25T12:54:13.007Z,1.52
2023-01-25T12:56:47.830Z,1.50
2023-01-25T12:59:25.758Z,1.60
2023-01-25T13:01:57.929Z,1.80
2023-01-25T13:04:51.047Z,1.67
2023-01-25T13:07:25.672Z,1.80
2023-01-25T13:10:00.510Z,1.95
2023-01-25T13:12:28.419Z,1.70
2023-01-25T13:14:57.750Z,2.20
2023-01-25T13:17:35.482Z,1.80
2023-01-25T13:20:06.564Z,1.77
2023-01-25T13:22:59.102Z,1.83
2023-01-25T13:25:27.827Z,2.05
2023-01-25T13:28:49.634Z,2.30
2023-01-25T13:31:52.051Z,1.65
2023-01-25T13:34:54.317Z,2.05
2023-01-25T13:37:24.960Z,2.13
2023-01-25T13:39:54.980Z,2.00
2023-01-25T13:42:25.415Z,1.85
2023-01-25T13:44:57.096Z,2.10
2023-01-25T13:47:30.075Z,3.05
2023-01-25T13:50:03.669Z,2.13
2023-01-25T13:52:32.343Z,2.00
2023-01-25T13:55:01.008Z,1.77
2023-01-25T13:57:30.760Z,1.75
2023-01-25T14:00:11.704Z,1.90
2023-01-25T14:02:42.984Z,1.67
2023-01-25T14:05:19.718Z,1.67
2023-01-25T14:07:50.211Z,2.10
2023-01-25T14:10:24.445Z,2.00
2023-01-25T14:12:55.625Z,2.00
2023-01-25T14:15:26.255Z,1.70
2023-01-25T14:18:13.530Z,1.80
2023-01-25T14:20:42.495Z,2.10
2023-01-25T14:23:23.094Z,1.92
2023-01-25T14:25:51.563Z,1.88
2023-01-25T14:28:19.820Z,1.75
2023-01-25T14:30:53.024Z,1.92
2023-01-25T14:33:27.106Z,1.90
2023-01-25T14:36:01.601Z,1.83
2023-01-25T14:38:34.963Z,2.05
2023-01-25T14:41:10.476Z,1.92
2023-01-25T14:43:39.707Z,2.08
2023-01-25T14:46:28.248Z,1.98
2023-01-25T14:49:25.329Z,1.80
2023-01-25T14:52:00.447Z,1.60
2023-01-25T14:54:32.260Z,1.92
2023-01-25T14:57:03.355Z,1.73
2023-01-25T14:59:36.097Z,2.15
2023-01-25T15:02:16.838Z,1.90
2023-01-25T15:04:55.601Z,1.95
2023-01-25T15:07:43.688Z,2.15
2023-01-25T15:10:20.681Z,1.90
2023-01-25T15:13:21.256Z,2.10
2023-01-25T15:15:54.727Z,1.90
2023-01-25T15:18:45.368Z,2.05
2023-01-25T15:21:16.508Z,1.90
2023-01-25T15:23:45.919Z,2.00
2023-01-25T15:26:16.440Z,1.95
2023-01-25T15:28:44.362Z,2.03
2023-01-25T15:31:17.968Z,2.33
2023-01-25T15:33:46.390Z,2.28
2023-01-25T15:36:17.680Z,1.92
2023-01-25T15:38:45.564Z,2.25
2023-01-25T15:41:14.228Z,1.92
2023-01-25T15:43:43.213Z,2.20
2023-01-25T15:46:17.815Z,2.20
2023-01-25T15:48:47.460Z,2.13
2023-01-25T15:51:16.787Z,2.47
2023-01-25T15:53:44.713Z,2.13
2023-01-25T15:56:15.713Z,2.20
2023-01-25T15:58:47.000Z,2.00
2023-01-25T16:01:15.079Z,2.38
2023-01-25T16:03:42.937Z,2.92
2023-01-25T16:06:33.088Z,2.40
2023-01-25T16:09:01.817Z,2.13
2023-01-25T16:11:29.701Z,2.25
2023-01-25T16:13:58.027Z,2.20
2023-01-25T16:16:27.166Z,2.40
2023-01-25T16:18:55.180Z,2.20
2023-01-25T16:21:25.735Z,2.10
2023-01-25T16:23:53.699Z,2.05
2023-01-25T16:26:24.637Z,2.50
2023-01-25T16:28:52.794Z,2.10
2023-01-25T16:31:31.866Z,2.20
2023-01-25T16:34:00.938Z,2.00
2023-01-25T16:36:31.462Z,2.08
2023-01-25T16:39:09.878Z,1.98
2023-01-25T16:41:38.480Z,1.80
2023-01-25T16:44:06.396Z,2.17
2023-01-25T16:46:34.919Z,2.40
2023-01-25T16:49:04.786Z,1.95
2023-01-25T16:51:34.571Z,1.95
2023-01-25T16:54:02.563Z,1.92
2023-01-25T16:56:32.174Z,1.60
2023-01-25T16:59:02.943Z,2.03
2023-01-25T17:01:31.198Z,1.95
2023-01-25T17:03:59.364Z,2.08
2023-01-25T17:06:29.477Z,1.90
2023-01-25T17:09:02.149Z,1.70
2023-01-25T17:11:33.218Z,1.75
2023-01-25T17:14:03.039Z,1.90
2023-01-25T17:16:31.785Z,1.70
2023-01-25T17:19:01.292Z,1.70
2023-01-25T17:21:29.783Z,1.50
2023-01-25T17:24:00.206Z,1.80
2023-01-25T17:26:29.754Z,1.52
2023-01-25T17:28:59.203Z,1.88
2023-01-25T17:31:29.378Z,1.65
2023-01-25T17:33:58.060Z,1.52
2023-01-25T17:36:26.217Z,1.63
2023-01-25T17:38:54.728Z,1.70
2023-01-25T17:41:25.280Z,1.75
2023-01-25T17:43:53.414Z,1.80
2023-01-25T17:46:25.412Z,2.00
2023-01-25T17:48:53.552Z,1.90
2023-01-25T17:51:24.740Z,2.10
2023-01-25T17:53:52.751Z,2.17
2023-01-25T17:56:20.932Z,1.98
2023-01-25T17:58:50.035Z,1.48
2023-01-25T18:01:19.865Z,1.60
2023-01-25T18:03:50.309Z,1.48
2023-01-25T18:06:20.164Z,1.58
2023-01-25T18:08:49.963Z,1.50
2023-01-25T18:11:20.396Z,1.52
2023-01-25T18:13:51.250Z,1.50
2023-01-25T18:16:21.576Z,1.73
2023-01-25T18:18:50.670Z,1.60
2023-01-25T18:21:24.212Z,1.88
2023-01-25T18:23:53.708Z,1.80
2023-01-25T18:26:25.037Z,1.98
2023-01-25T18:28:59.178Z,1.65
2023-01-25T18:31:27.732Z,1.65
2023-01-25T18:33:55.627Z,1.80
2023-01-25T18:36:23.370Z,2.97
2023-01-25T18:38:51.161Z,2.20
2023-01-25T18:41:18.992Z,1.90
2023-01-25T18:43:49.724Z,2.40
2023-01-25T18:46:18.930Z,2.25
2023-01-25T18:48:47.235Z,1.75
2023-01-25T18:51:18.409Z,1.58
2023-01-25T18:53:47.614Z,1.70
2023-01-25T18:56:17.407Z,1.80
2023-01-25T18:58:46.352Z,1.73
2023-01-25T19:01:16.263Z,1.77
2023-01-25T19:03:49.745Z,1.83
2023-01-25T19:06:18.547Z,1.92
2023-01-25T19:08:51.839Z,1.95
2023-01-25T19:11:22.008Z,1.60
2023-01-25T19:13:50.520Z,1.95
2023-01-25T19:16:20.636Z,2.17
2023-01-25T19:18:52.107Z,1.73
2023-01-25T19:21:21.899Z,1.85
2023-01-25T19:23:49.834Z,1.90
2023-01-25T19:26:20.145Z,2.25
2023-01-25T19:28:48.912Z,1.92
2023-01-25T19:31:18.988Z,2.00
2023-01-25T19:33:47.606Z,2.00
2023-01-25T19:36:19.289Z,1.90
2023-01-25T19:38:48.924Z,1.88
2023-01-25T19:41:18.970Z,1.88
2023-01-25T19:43:47.153Z,1.95
2023-01-25T19:46:16.788Z,2.00
2023-01-25T19:48:47.670Z,2.00
2023-01-25T19:51:19.828Z,2.05
2023-01-25T19:53:54.404Z,2.50
2023-01-25T19:56:22.616Z,2.25
2023-01-25T19:58:50.846Z,2.78
2023-01-25T20:01:20.701Z,2.10
2023-01-25T20:03:49.542Z,2.28
2023-01-25T20:06:20.828Z,2.33
2023-01-25T20:08:49.013Z,2.30
2023-01-25T20:11:19.629Z,2.30
2023-01-25T20:13:48.506Z,2.30
2023-01-25T20:16:17.668Z,2.60
2023-01-25T20:18:45.976Z,2.70
2023-01-25T20:21:15.493Z,2.60
2023-01-25T20:23:46.681Z,2.65
2023-01-25T20:26:17.738Z,2.30
2023-01-25T20:28:47.707Z,2.58
2023-01-25T20:31:21.160Z,2.55
2023-01-25T20:33:49.275Z,2.40
2023-01-25T20:36:17.757Z,2.97
2023-01-25T20:38:47.464Z,2.97
2023-01-25T20:41:18.282Z,3.30
2023-01-25T20:43:50.477Z,2.88
2023-01-25T20:46:19.656Z,2.90
2023-01-25T20:48:47.915Z,3.42
2023-01-25T20:51:17.321Z,3.78
2023-01-25T20:53:47.489Z,3.28
2023-01-25T20:56:16.252Z,3.75
2023-01-25T20:58:45.913Z,3.30
2023-01-25T21:01:15.104Z,3.25
2023-01-25T21:03:42.965Z,3.05
2023-01-25T21:06:12.167Z,2.90
2023-01-25T21:08:40.448Z,3.10
2023-01-25T21:11:10.198Z,2.90
2023-01-25T21:13:38.580Z,3.70
2023-01-25T21:16:10.370Z,3.20
2023-01-25T21:18:39.453Z,3.45
2023-01-25T21:21:08.857Z,3.22
2023-01-25T21:23:38.543Z,3.35
2023-01-25T21:26:07.472Z,3.60
2023-01-25T21:28:36.629Z,3.20
2023-01-25T21:31:12.053Z,3.70
2023-01-25T21:33:40.316Z,3.45
2023-01-25T21:36:11.543Z,3.40
2023-01-25T21:38:40.252Z,3.75
2023-01-25T21:41:11.975Z,3.97
2023-01-25T21:43:58.840Z,4.07
2023-01-25T21:46:28.567Z,3.83
2023-01-25T21:49:15.734Z,4.00
2023-01-25T21:51:49.559Z,4.20
2023-01-25T21:54:18.521Z,4.32
2023-01-25T21:56:47.540Z,4.20
2023-01-25T21:59:17.018Z,4.05
2023-01-25T22:01:45.877Z,4.82
2023-01-25T22:04:15.282Z,4.35
2023-01-25T22:06:43.855Z,3.90
2023-01-25T22:09:13.784Z,3.97
2023-01-25T22:11:41.716Z,4.60
2023-01-25T22:14:09.709Z,4.38
2023-01-25T22:16:38.795Z,4.47
2023-01-25T22:19:06.571Z,4.22
2023-01-25T22:21:34.623Z,4.20
2023-01-25T22:24:04.658Z,4.85
2023-01-25T22:26:43.784Z,4.25
2023-01-25T22:29:13.685Z,5.07
2023-01-25T22:31:43.944Z,4.43
2023-01-25T22:34:11.970Z,5.20
2023-01-25T22:36:39.698Z,4.45
2023-01-25T22:39:07.864Z,4.25
2023-01-25T22:41:38.468Z,4.10
2023-01-25T22:44:06.402Z,4.38
2023-01-25T22:46:34.604Z,4.30
2023-01-25T22:49:04.736Z,4.75
2023-01-25T22:51:33.301Z,4.40
2023-01-25T22:54:01.547Z,4.63
2023-01-25T22:56:32.062Z,4.90
2023-01-25T22:59:00.674Z,4.28
2023-01-25T23:01:29.909Z,4.78
2023-01-25T23:03:58.288Z,4.80
2023-01-25T23:06:29.429Z,4.78
2023-01-25T23:08:59.808Z,4.63
2023-01-25T23:11:35.812Z,4.15
2023-01-25T23:14:21.997Z,4.65
2023-01-25T23:16:51.381Z,4.93
2023-01-25T23:19:18.396Z,5.03
2023-01-25T23:21:47.479Z,4.50
2023-01-25T23:24:15.373Z,4.47
2023-01-25T23:26:46.356Z,4.63
2023-01-25T23:29:14.629Z,4.70
2023-01-25T23:31:42.658Z,4.93
2023-01-25T23:34:12.692Z,5.00
2023-01-25T23:36:42.275Z,4.75
2023-01-25T23:39:14.654Z,5.32
2023-01-25T23:41:42.362Z,5.10
2023-01-25T23:44:10.133Z,5.75
2023-01-25T23:46:37.986Z,5.15
2023-01-25T23:49:05.769Z,5.43
2023-01-25T23:51:33.523Z,5.38
2023-01-25T23:54:01.342Z,5.45
2023-01-25T23:56:30.511Z,5.97
2023-01-25T23:58:58.579Z,5.38
